createdAt,value
2016-07-03T00:00:37.173Z,1007.64
2016-07-03T00:01:37.151Z,1007.69
2016-07-03T00:02:37.134Z,1007.68
2016-07-03T00:03:37.107Z,1007.69
2016-07-03T00:04:37.084Z,1007.67
2016-07-03T00:05:37.061Z,1007.72
2016-07-03T00:06:37.038Z,1007.72
2016-07-03T00:07:37.015Z,1007.71
2016-07-03T00:08:36.992Z,1007.68
2016-07-03T00:09:36.970Z,1007.67
2016-07-03T00:10:36.947Z,1007.66
2016-07-03T00:11:36.923Z,1007.71
2016-07-03T00:12:36.901Z,1007.73
2016-07-03T00:13:36.885Z,1007.71
2016-07-03T00:14:36.855Z,1007.69
2016-07-03T00:15:36.832Z,1007.68
2016-07-03T00:16:36.809Z,1007.65
2016-07-03T00:17:36.787Z,1007.71
2016-07-03T00:18:36.764Z,1007.73
2016-07-03T00:19:36.741Z,1007.72
2016-07-03T00:20:36.718Z,1007.71
2016-07-03T00:21:36.695Z,1007.68
2016-07-03T00:22:36.672Z,1007.66
2016-07-03T00:23:36.650Z,1007.67
2016-07-03T00:24:36.627Z,1007.69
2016-07-03T00:25:36.602Z,1007.72
2016-07-03T00:26:36.579Z,1007.61
2016-07-03T00:27:36.557Z,1007.63
2016-07-03T00:28:36.534Z,1007.65
2016-07-03T00:29:36.512Z,1007.63
2016-07-03T00:30:36.491Z,1007.66
2016-07-03T00:31:36.467Z,1007.63
2016-07-03T00:32:36.444Z,1007.62
2016-07-03T00:33:36.422Z,1007.62
2016-07-03T00:34:36.396Z,1007.64
2016-07-03T00:35:36.376Z,1007.64
2016-07-03T00:36:36.353Z,1007.61
2016-07-03T00:37:36.330Z,1007.64
2016-07-03T00:38:36.307Z,1007.6
2016-07-03T00:39:36.284Z,1007.62
2016-07-03T00:40:36.262Z,1007.62
2016-07-03T00:41:36.235Z,1007.63
2016-07-03T00:42:36.216Z,1007.59
2016-07-03T00:43:36.192Z,1007.62
2016-07-03T00:44:36.169Z,1007.63
2016-07-03T00:45:36.147Z,1007.63
2016-07-03T00:46:36.124Z,1007.66
2016-07-03T00:47:36.101Z,1007.64
2016-07-03T00:48:36.077Z,1007.62
2016-07-03T00:49:36.055Z,1007.65
2016-07-03T00:50:36.032Z,1007.61
2016-07-03T00:51:36.009Z,1007.67
2016-07-03T00:52:35.985Z,1007.64
2016-07-03T00:53:35.962Z,1007.68
2016-07-03T00:54:35.938Z,1007.67
2016-07-03T00:55:35.916Z,1007.64
2016-07-03T00:56:35.943Z,1007.71
2016-07-03T00:57:35.870Z,1007.7
2016-07-03T00:58:35.846Z,1007.75
2016-07-03T00:59:35.823Z,1007.74
2016-07-03T01:00:35.800Z,1007.72
2016-07-03T01:01:35.777Z,1007.71
2016-07-03T01:02:35.754Z,1007.74
2016-07-03T01:03:35.731Z,1007.68
2016-07-03T01:04:35.714Z,1007.75
2016-07-03T01:05:35.685Z,1007.78
2016-07-03T01:06:35.661Z,1007.76
2016-07-03T01:07:35.638Z,1007.84
2016-07-03T01:08:35.616Z,1007.75
2016-07-03T01:09:35.592Z,1007.81
2016-07-03T01:10:35.569Z,1007.78
2016-07-03T01:11:35.545Z,1007.77
2016-07-03T01:12:35.520Z,1007.77
2016-07-03T01:13:35.497Z,1007.8
2016-07-03T01:14:35.479Z,1007.75
2016-07-03T01:15:35.451Z,1007.73
2016-07-03T01:16:35.428Z,1007.74
2016-07-03T01:17:35.402Z,1007.76
2016-07-03T01:18:35.386Z,1007.75
2016-07-03T01:19:35.361Z,1007.73
2016-07-03T01:20:35.333Z,1007.74
2016-07-03T01:21:35.317Z,1007.71
2016-07-03T01:22:35.292Z,1007.78
2016-07-03T01:23:35.270Z,1007.77
2016-07-03T01:24:35.247Z,1007.78
2016-07-03T01:25:35.220Z,1007.76
2016-07-03T01:26:35.200Z,1007.73
2016-07-03T01:27:35.177Z,1007.73
2016-07-03T01:28:35.150Z,1007.73
2016-07-03T01:29:35.130Z,1007.72
2016-07-03T01:30:35.106Z,1007.71
2016-07-03T01:31:35.084Z,1007.69
2016-07-03T01:32:35.059Z,1007.71
2016-07-03T01:33:35.037Z,1007.71
2016-07-03T01:34:35.012Z,1007.71
2016-07-03T01:35:34.989Z,1007.67
2016-07-03T01:36:34.969Z,1007.72
2016-07-03T01:37:34.944Z,1007.7
2016-07-03T01:38:34.937Z,1007.7
2016-07-03T01:39:34.894Z,1007.64
2016-07-03T01:40:34.875Z,1007.72
2016-07-03T01:41:34.851Z,1007.68
2016-07-03T01:42:34.829Z,1007.71
2016-07-03T01:43:34.803Z,1007.72
2016-07-03T01:44:34.782Z,1007.7
2016-07-03T01:45:34.759Z,1007.7
2016-07-03T01:46:34.736Z,1007.71
2016-07-03T01:47:34.713Z,1007.69
2016-07-03T01:48:34.690Z,1007.68
2016-07-03T01:49:34.667Z,1007.71
2016-07-03T01:50:34.641Z,1007.69
2016-07-03T01:51:34.620Z,1007.73
2016-07-03T01:52:34.594Z,1007.68
2016-07-03T01:53:34.572Z,1007.69
2016-07-03T01:54:34.548Z,1007.72
2016-07-03T01:55:34.525Z,1007.69
2016-07-03T01:56:34.503Z,1007.7
2016-07-03T01:57:34.481Z,1007.72
2016-07-03T01:58:34.458Z,1007.69
2016-07-03T01:59:34.435Z,1007.72
2016-07-03T02:00:34.410Z,1007.67
2016-07-03T02:01:34.388Z,1007.64
2016-07-03T02:02:34.365Z,1007.61
2016-07-03T02:03:34.343Z,1007.64
2016-07-03T02:04:34.319Z,1007.66
2016-07-03T02:05:34.296Z,1007.64
2016-07-03T02:06:34.274Z,1007.62
2016-07-03T02:07:34.250Z,1007.62
2016-07-03T02:08:34.227Z,1007.6
2016-07-03T02:09:34.203Z,1007.62
2016-07-03T02:10:34.180Z,1007.63
2016-07-03T02:11:34.157Z,1007.61
2016-07-03T02:12:34.134Z,1007.59
2016-07-03T02:13:34.110Z,1007.65
2016-07-03T02:14:34.087Z,1007.65
2016-07-03T02:15:34.064Z,1007.62
2016-07-03T02:16:34.040Z,1007.64
2016-07-03T02:17:34.018Z,1007.66
2016-07-03T02:18:33.993Z,1007.61
2016-07-03T02:19:33.971Z,1007.65
2016-07-03T02:20:33.948Z,1007.62
2016-07-03T02:21:33.924Z,1007.62
2016-07-03T02:22:33.900Z,1007.65
2016-07-03T02:23:33.875Z,1007.64
2016-07-03T02:24:33.855Z,1007.61
2016-07-03T02:25:33.829Z,1007.66
2016-07-03T02:26:33.809Z,1007.66
2016-07-03T02:27:33.784Z,1007.65
2016-07-03T02:28:33.762Z,1007.63
2016-07-03T02:29:33.738Z,1007.69
2016-07-03T02:30:33.715Z,1007.66
2016-07-03T02:31:33.691Z,1007.67
2016-07-03T02:32:33.669Z,1007.69
2016-07-03T02:33:33.646Z,1007.72
2016-07-03T02:34:33.622Z,1007.68
2016-07-03T02:35:33.598Z,1007.7
2016-07-03T02:36:33.576Z,1007.71
2016-07-03T02:37:33.550Z,1007.67
2016-07-03T02:38:33.529Z,1007.72
2016-07-03T02:39:33.503Z,1007.72
2016-07-03T02:40:33.566Z,1007.66
2016-07-03T02:41:33.458Z,1007.67
2016-07-03T02:42:33.436Z,1007.69
2016-07-03T02:43:33.412Z,1007.69
2016-07-03T02:44:33.389Z,1007.73
2016-07-03T02:45:33.365Z,1007.74
2016-07-03T02:46:33.342Z,1007.73
2016-07-03T02:47:33.319Z,1007.77
2016-07-03T02:48:33.295Z,1007.76
2016-07-03T02:49:33.271Z,1007.77
2016-07-03T02:50:33.249Z,1007.73
2016-07-03T02:51:33.225Z,1007.75
2016-07-03T02:52:33.201Z,1007.73
2016-07-03T02:53:33.178Z,1007.75
2016-07-03T02:54:33.155Z,1007.75
2016-07-03T02:55:33.133Z,1007.77
2016-07-03T02:56:33.161Z,1007.74
2016-07-03T02:57:33.083Z,1007.76
2016-07-03T02:58:33.062Z,1007.77
2016-07-03T02:59:33.038Z,1007.76
2016-07-03T03:00:33.015Z,1007.8
2016-07-03T03:01:32.991Z,1007.79
2016-07-03T03:02:32.968Z,1007.78
2016-07-03T03:03:32.941Z,1007.79
2016-07-03T03:04:32.921Z,1007.85
2016-07-03T03:05:32.895Z,1007.81
2016-07-03T03:06:32.874Z,1007.8
2016-07-03T03:07:32.848Z,1007.82
2016-07-03T03:08:32.827Z,1007.85
2016-07-03T03:09:32.804Z,1007.9
2016-07-03T03:10:32.781Z,1007.85
2016-07-03T03:11:32.756Z,1007.84
2016-07-03T03:12:32.733Z,1007.85
2016-07-03T03:13:32.710Z,1007.83
2016-07-03T03:14:32.683Z,1007.86
2016-07-03T03:15:32.663Z,1007.85
2016-07-03T03:16:32.640Z,1007.89
2016-07-03T03:17:32.616Z,1007.87
2016-07-03T03:18:32.593Z,1007.89
2016-07-03T03:19:32.569Z,1007.9
2016-07-03T03:20:32.547Z,1007.9
2016-07-03T03:21:32.522Z,1007.9
2016-07-03T03:22:32.499Z,1007.86
2016-07-03T03:23:32.476Z,1007.86
2016-07-03T03:24:32.454Z,1007.85
2016-07-03T03:25:32.430Z,1007.9
2016-07-03T03:26:32.407Z,1007.87
2016-07-03T03:27:32.380Z,1007.85
2016-07-03T03:28:32.359Z,1007.84
2016-07-03T03:29:32.336Z,1007.86
2016-07-03T03:30:32.314Z,1007.92
2016-07-03T03:31:32.287Z,1007.91
2016-07-03T03:32:32.267Z,1007.91
2016-07-03T03:33:32.243Z,1007.88
2016-07-03T03:34:32.219Z,1007.91
2016-07-03T03:35:32.196Z,1007.88
2016-07-03T03:36:32.170Z,1007.93
2016-07-03T03:37:32.146Z,1007.91
2016-07-03T03:38:32.122Z,1007.9
2016-07-03T03:39:32.101Z,1007.92
2016-07-03T03:40:32.077Z,1007.92
2016-07-03T03:41:32.054Z,1007.9
2016-07-03T03:42:32.031Z,1007.87
2016-07-03T03:43:32.007Z,1007.92
2016-07-03T03:44:31.982Z,1007.93
2016-07-03T03:45:31.961Z,1007.93
2016-07-03T03:46:31.940Z,1007.93
2016-07-03T03:47:31.917Z,1007.91
2016-07-03T03:48:31.894Z,1007.94
2016-07-03T03:49:31.871Z,1007.91
2016-07-03T03:50:31.848Z,1007.9
2016-07-03T03:51:31.824Z,1007.95
2016-07-03T03:52:31.800Z,1007.97
2016-07-03T03:53:31.776Z,1007.93
2016-07-03T03:54:31.751Z,1007.92
2016-07-03T03:55:31.731Z,1007.98
2016-07-03T03:56:31.708Z,1007.99
2016-07-03T03:57:31.685Z,1008.02
2016-07-03T03:58:31.662Z,1008.09
2016-07-03T03:59:31.639Z,1008.05
2016-07-03T04:00:31.613Z,1008.05
2016-07-03T04:01:31.598Z,1008.07
2016-07-03T04:02:31.568Z,1008.1
2016-07-03T04:03:31.544Z,1008.09
2016-07-03T04:04:31.523Z,1008.08
2016-07-03T04:05:31.497Z,1008.1
2016-07-03T04:06:31.476Z,1008.18
2016-07-03T04:07:31.454Z,1008.11
2016-07-03T04:08:31.429Z,1008.1
2016-07-03T04:09:31.408Z,1008.13
2016-07-03T04:10:31.384Z,1008.17
2016-07-03T04:11:31.362Z,1008.16
2016-07-03T04:12:31.345Z,1008.16
2016-07-03T04:13:31.316Z,1008.15
2016-07-03T04:14:31.293Z,1008.15
2016-07-03T04:15:31.271Z,1008.15
2016-07-03T04:16:31.247Z,1008.17
2016-07-03T04:17:31.225Z,1008.17
2016-07-03T04:18:31.202Z,1008.15
2016-07-03T04:19:31.180Z,1008.19
2016-07-03T04:20:31.156Z,1008.2
2016-07-03T04:21:31.135Z,1008.21
2016-07-03T04:22:31.109Z,1008.25
2016-07-03T04:23:31.090Z,1008.21
2016-07-03T04:24:31.065Z,1008.23
2016-07-03T04:25:31.041Z,1008.18
2016-07-03T04:26:31.018Z,1008.22
2016-07-03T04:27:30.997Z,1008.21
2016-07-03T04:28:30.974Z,1008.22
2016-07-03T04:29:30.953Z,1008.24
2016-07-03T04:30:30.929Z,1008.23
2016-07-03T04:31:30.904Z,1008.25
2016-07-03T04:32:30.884Z,1008.24
2016-07-03T04:33:30.862Z,1008.25
2016-07-03T04:34:30.839Z,1008.21
2016-07-03T04:35:30.817Z,1008.21
2016-07-03T04:36:30.794Z,1008.24
2016-07-03T04:37:30.770Z,1008.22
2016-07-03T04:38:30.749Z,1008.21
2016-07-03T04:39:30.728Z,1008.25
2016-07-03T04:40:30.706Z,1008.23
2016-07-03T04:41:30.683Z,1008.24
2016-07-03T04:42:30.660Z,1008.23
2016-07-03T04:43:30.639Z,1008.26
2016-07-03T04:44:30.616Z,1008.29
2016-07-03T04:45:30.596Z,1008.21
2016-07-03T04:46:30.572Z,1008.25
2016-07-03T04:47:30.551Z,1008.33
2016-07-03T04:48:30.529Z,1008.29
2016-07-03T04:49:30.505Z,1008.31
2016-07-03T04:50:30.484Z,1008.28
2016-07-03T04:51:30.465Z,1008.3
2016-07-03T04:52:30.442Z,1008.26
2016-07-03T04:53:30.420Z,1008.35
2016-07-03T04:54:30.398Z,1008.31
2016-07-03T04:55:30.376Z,1008.29
2016-07-03T04:56:30.354Z,1008.27
2016-07-03T04:57:30.333Z,1008.26
2016-07-03T04:58:30.312Z,1008.23
2016-07-03T04:59:30.291Z,1008.29
2016-07-03T05:00:30.268Z,1008.22
2016-07-03T05:01:30.246Z,1008.24
2016-07-03T05:02:30.227Z,1008.27
2016-07-03T05:03:30.207Z,1008.2
2016-07-03T05:04:30.184Z,1008.17
2016-07-03T05:05:30.164Z,1008.19
2016-07-03T05:06:30.143Z,1008.16
2016-07-03T05:07:30.122Z,1008.25
2016-07-03T05:08:30.101Z,1008.12
2016-07-03T05:09:30.082Z,1008.28
2016-07-03T05:10:30.060Z,1008.25
2016-07-03T05:11:30.039Z,1008.29
2016-07-03T05:12:30.016Z,1008.24
2016-07-03T05:13:29.999Z,1008.28
2016-07-03T05:14:29.975Z,1008.24
2016-07-03T05:15:29.954Z,1008.33
2016-07-03T05:16:29.933Z,1008.33
2016-07-03T05:17:29.930Z,1008.3
2016-07-03T05:18:29.894Z,1008.33
2016-07-03T05:19:29.874Z,1008.33
2016-07-03T05:20:29.853Z,1008.31
2016-07-03T05:21:29.834Z,1008.35
2016-07-03T05:22:29.811Z,1008.35
2016-07-03T05:23:29.792Z,1008.35
2016-07-03T05:24:29.776Z,1008.42
2016-07-03T05:25:29.752Z,1008.34
2016-07-03T05:26:29.730Z,1008.42
2016-07-03T05:27:29.710Z,1008.34
2016-07-03T05:28:29.689Z,1008.34
2016-07-03T05:29:29.671Z,1008.38
2016-07-03T05:30:29.651Z,1008.4
2016-07-03T05:31:29.631Z,1008.41
2016-07-03T05:32:29.608Z,1008.48
2016-07-03T05:33:29.591Z,1008.44
2016-07-03T05:34:29.568Z,1008.48
2016-07-03T05:35:29.548Z,1008.48
2016-07-03T05:36:29.527Z,1008.45
2016-07-03T05:37:29.507Z,1008.49
2016-07-03T05:38:29.486Z,1008.52
2016-07-03T05:39:29.466Z,1008.49
2016-07-03T05:40:29.446Z,1008.47
2016-07-03T05:41:29.426Z,1008.47
2016-07-03T05:42:29.407Z,1008.53
2016-07-03T05:43:29.386Z,1008.48
2016-07-03T05:44:29.365Z,1008.52
2016-07-03T05:45:29.345Z,1008.52
2016-07-03T05:46:29.325Z,1008.45
2016-07-03T05:47:29.305Z,1008.47
2016-07-03T05:48:29.284Z,1008.49
2016-07-03T05:49:29.265Z,1008.52
2016-07-03T05:50:29.243Z,1008.46
2016-07-03T05:51:29.223Z,1008.56
2016-07-03T05:52:29.204Z,1008.5
2016-07-03T05:53:29.199Z,1008.54
2016-07-03T05:54:29.161Z,1008.59
2016-07-03T05:55:29.142Z,1008.57
2016-07-03T05:56:29.122Z,1008.59
2016-07-03T05:57:29.103Z,1008.63
2016-07-03T05:58:29.083Z,1008.64
2016-07-03T05:59:29.062Z,1008.6
2016-07-03T06:00:29.042Z,1008.58
2016-07-03T06:01:29.023Z,1008.67
2016-07-03T06:02:29.002Z,1008.63
2016-07-03T06:03:28.983Z,1008.62
2016-07-03T06:04:28.963Z,1008.62
2016-07-03T06:05:28.945Z,1008.64
2016-07-03T06:06:28.924Z,1008.65
2016-07-03T06:07:28.905Z,1008.68
2016-07-03T06:08:28.884Z,1008.71
2016-07-03T06:09:28.865Z,1008.7
2016-07-03T06:10:28.845Z,1008.68
2016-07-03T06:11:28.825Z,1008.65
2016-07-03T06:12:28.806Z,1008.65
2016-07-03T06:13:28.785Z,1008.68
2016-07-03T06:14:28.766Z,1008.65
2016-07-03T06:15:28.746Z,1008.73
2016-07-03T06:16:28.727Z,1008.75
2016-07-03T06:17:28.706Z,1008.71
2016-07-03T06:18:28.687Z,1008.69
2016-07-03T06:19:28.668Z,1008.79
2016-07-03T06:20:28.655Z,1008.77
2016-07-03T06:21:28.630Z,1008.68
2016-07-03T06:22:28.610Z,1008.7
2016-07-03T06:23:28.591Z,1008.76
2016-07-03T06:24:28.570Z,1008.77
2016-07-03T06:25:28.550Z,1008.7
2016-07-03T06:26:28.528Z,1008.76
2016-07-03T06:27:28.510Z,1008.77
2016-07-03T06:28:28.491Z,1008.77
2016-07-03T06:29:28.472Z,1008.78
2016-07-03T06:30:28.454Z,1008.76
2016-07-03T06:31:28.433Z,1008.83
2016-07-03T06:32:28.415Z,1008.88
2016-07-03T06:33:28.397Z,1008.84
2016-07-03T06:34:28.377Z,1008.88
2016-07-03T06:35:28.355Z,1008.88
2016-07-03T06:36:28.342Z,1008.89
2016-07-03T06:37:28.318Z,1008.91
2016-07-03T06:38:28.299Z,1008.93
2016-07-03T06:39:28.278Z,1008.93
2016-07-03T06:40:28.260Z,1008.95
2016-07-03T06:41:28.236Z,1008.9
2016-07-03T06:42:28.221Z,1008.87
2016-07-03T06:43:28.200Z,1008.9
2016-07-03T06:44:28.182Z,1008.88
2016-07-03T06:45:28.161Z,1008.84
2016-07-03T06:46:28.142Z,1008.85
2016-07-03T06:47:28.123Z,1008.88
2016-07-03T06:48:28.103Z,1008.95
2016-07-03T06:49:28.083Z,1008.88
2016-07-03T06:50:28.064Z,1008.87
2016-07-03T06:51:28.044Z,1008.92
2016-07-03T06:52:28.025Z,1008.92
2016-07-03T06:53:28.005Z,1008.88
2016-07-03T06:54:27.986Z,1008.9
2016-07-03T06:55:27.967Z,1008.88
2016-07-03T06:56:27.951Z,1008.91
2016-07-03T06:57:27.929Z,1008.88
2016-07-03T06:58:27.909Z,1008.85
2016-07-03T06:59:27.890Z,1008.89
2016-07-03T07:00:27.872Z,1008.91
2016-07-03T07:01:27.854Z,1009.02
2016-07-03T07:02:27.831Z,1008.96
2016-07-03T07:03:27.814Z,1008.99
2016-07-03T07:04:27.795Z,1008.99
2016-07-03T07:05:27.773Z,1009.05
2016-07-03T07:06:27.758Z,1009.06
2016-07-03T07:07:27.739Z,1008.99
2016-07-03T07:08:27.719Z,1009
2016-07-03T07:09:27.698Z,1009.02
2016-07-03T07:10:27.681Z,1009
2016-07-03T07:11:27.664Z,1009.08
2016-07-03T07:12:27.645Z,1009.07
2016-07-03T07:13:27.626Z,1009.1
2016-07-03T07:14:27.608Z,1009.08
2016-07-03T07:15:27.587Z,1009.07
2016-07-03T07:16:27.569Z,1009.1
2016-07-03T07:17:27.550Z,1009.09
2016-07-03T07:18:27.534Z,1009.1
2016-07-03T07:19:27.513Z,1009.09
2016-07-03T07:20:27.495Z,1009.1
2016-07-03T07:21:27.475Z,1009.1
2016-07-03T07:22:27.458Z,1009.18
2016-07-03T07:23:27.437Z,1009.16
2016-07-03T07:24:27.420Z,1009.13
2016-07-03T07:25:27.398Z,1009.05
2016-07-03T07:26:27.382Z,1009.14
2016-07-03T07:27:27.362Z,1009.15
2016-07-03T07:28:27.345Z,1009.12
2016-07-03T07:29:27.325Z,1009.19
2016-07-03T07:30:27.308Z,1009.17
2016-07-03T07:31:27.288Z,1009.2
2016-07-03T07:32:27.269Z,1009.2
2016-07-03T07:33:27.250Z,1009.16
2016-07-03T07:34:27.234Z,1009.24
2016-07-03T07:35:27.215Z,1009.2
2016-07-03T07:36:27.196Z,1009.2
2016-07-03T07:37:27.177Z,1009.25
2016-07-03T07:38:27.159Z,1009.2
2016-07-03T07:39:27.141Z,1009.17
2016-07-03T07:40:27.123Z,1009.21
2016-07-03T07:41:27.107Z,1009.12
2016-07-03T07:42:27.088Z,1009.21
2016-07-03T07:43:27.069Z,1009.26
2016-07-03T07:44:27.054Z,1009.21
2016-07-03T07:45:27.035Z,1009.23
2016-07-03T07:46:27.014Z,1009.23
2016-07-03T07:47:27.000Z,1009.2
2016-07-03T07:48:26.982Z,1009.26
2016-07-03T07:49:26.964Z,1009.27
2016-07-03T07:50:26.948Z,1009.28
2016-07-03T07:51:26.930Z,1009.22
2016-07-03T07:52:26.913Z,1009.24
2016-07-03T07:53:26.895Z,1009.24
2016-07-03T07:54:26.879Z,1009.16
2016-07-03T07:55:26.862Z,1009.19
2016-07-03T07:56:26.842Z,1009.26
2016-07-03T07:57:26.829Z,1009.22
2016-07-03T07:58:26.812Z,1009.24
2016-07-03T07:59:26.806Z,1009.27
2016-07-03T08:00:26.779Z,1009.16
2016-07-03T08:01:26.759Z,1009.26
2016-07-03T08:02:26.747Z,1009.22
2016-07-03T08:03:26.729Z,1009.22
2016-07-03T08:04:26.714Z,1009.16
2016-07-03T08:05:26.733Z,1009.25
2016-07-03T08:06:26.687Z,1009.25
2016-07-03T08:07:26.665Z,1009.24
2016-07-03T08:08:26.651Z,1009.21
2016-07-03T08:09:26.634Z,1009.23
2016-07-03T08:10:26.618Z,1009.31
2016-07-03T08:11:26.603Z,1009.21
2016-07-03T08:12:26.588Z,1009.19
2016-07-03T08:13:26.572Z,1009.15
2016-07-03T08:14:26.554Z,1009.17
2016-07-03T08:15:26.541Z,1009.2
2016-07-03T08:16:26.526Z,1009.22
2016-07-03T08:17:26.510Z,1009.23
2016-07-03T08:18:26.494Z,1009.22
2016-07-03T08:19:26.482Z,1009.24
2016-07-03T08:20:26.468Z,1009.25
2016-07-03T08:21:26.454Z,1009.28
2016-07-03T08:22:26.441Z,1009.27
2016-07-03T08:23:26.428Z,1009.25
2016-07-03T08:24:26.414Z,1009.19
2016-07-03T08:25:26.401Z,1009.21
2016-07-03T08:26:26.387Z,1009.21
2016-07-03T08:27:26.375Z,1009.25
2016-07-03T08:28:26.363Z,1009.25
2016-07-03T08:29:26.349Z,1009.22
2016-07-03T08:30:26.338Z,1009.22
2016-07-03T08:31:26.328Z,1009.25
2016-07-03T08:32:26.316Z,1009.26
2016-07-03T08:33:26.305Z,1009.24
2016-07-03T08:34:26.292Z,1009.29
2016-07-03T08:35:26.282Z,1009.06
2016-07-03T08:36:26.271Z,1009.22
2016-07-03T08:37:26.260Z,1009.22
2016-07-03T08:38:26.248Z,1009.19
2016-07-03T08:39:26.237Z,1009.26
2016-07-03T08:40:26.225Z,1009.16
2016-07-03T08:41:26.216Z,1009.21
2016-07-03T08:42:26.205Z,1009.19
2016-07-03T08:43:26.193Z,1009.22
2016-07-03T08:44:26.182Z,1009.21
2016-07-03T08:45:26.170Z,1009.22
2016-07-03T08:46:26.161Z,1009.23
2016-07-03T08:47:26.151Z,1009.21
2016-07-03T08:48:26.140Z,1009.25
2016-07-03T08:49:26.130Z,1009.2
2016-07-03T08:50:26.120Z,1009.2
2016-07-03T08:51:26.112Z,1009.2
2016-07-03T08:52:26.102Z,1009.23
2016-07-03T08:53:26.094Z,1009.24
2016-07-03T08:54:26.082Z,1009.27
2016-07-03T08:55:26.074Z,1009.19
2016-07-03T08:56:26.064Z,1009.21
2016-07-03T08:57:26.053Z,1009.27
2016-07-03T08:58:26.043Z,1009.24
2016-07-03T08:59:26.033Z,1009.29
2016-07-03T09:00:26.026Z,1009.27
2016-07-03T09:01:26.017Z,1009.27
2016-07-03T09:02:26.211Z,1009.27
2016-07-03T09:03:26.001Z,1009.31
2016-07-03T09:04:25.993Z,1009.31
2016-07-03T09:05:25.985Z,1009.26
2016-07-03T09:06:25.977Z,1009.24
2016-07-03T09:07:25.966Z,1009.26
2016-07-03T09:08:25.960Z,1009.24
2016-07-03T09:09:25.951Z,1009.32
2016-07-03T09:10:25.940Z,1009.32
2016-07-03T09:11:25.932Z,1009.37
2016-07-03T09:12:25.922Z,1009.38
2016-07-03T09:13:25.913Z,1009.36
2016-07-03T09:14:25.904Z,1009.36
2016-07-03T09:15:25.895Z,1009.33
2016-07-03T09:16:25.884Z,1009.29
2016-07-03T09:17:25.874Z,1009.32
2016-07-03T09:18:25.865Z,1009.23
2016-07-03T09:19:25.856Z,1009.2
2016-07-03T09:20:25.845Z,1009.28
2016-07-03T09:21:25.835Z,1009.28
2016-07-03T09:22:25.828Z,1009.32
2016-07-03T09:23:25.816Z,1009.3
2016-07-03T09:24:25.811Z,1009.24
2016-07-03T09:25:25.804Z,1009.22
2016-07-03T09:26:25.792Z,1009.23
2016-07-03T09:27:25.787Z,1009.22
2016-07-03T09:28:25.776Z,1009.32
2016-07-03T09:29:25.769Z,1009.27
2016-07-03T09:30:25.763Z,1009.2
2016-07-03T09:31:25.753Z,1009.24
2016-07-03T09:32:25.749Z,1009.23
2016-07-03T09:33:25.737Z,1009.13
2016-07-03T09:34:25.728Z,1009.13
2016-07-03T09:35:25.722Z,1009.19
2016-07-03T09:36:25.714Z,1009.2
2016-07-03T09:37:25.710Z,1009.21
2016-07-03T09:38:25.696Z,1009.18
2016-07-03T09:39:25.695Z,1009.16
2016-07-03T09:40:25.689Z,1009.18
2016-07-03T09:41:25.681Z,1009.11
2016-07-03T09:42:25.674Z,1009.12
2016-07-03T09:43:25.667Z,1009.1
2016-07-03T09:44:25.661Z,1009.09
2016-07-03T09:45:25.654Z,1009.08
2016-07-03T09:46:25.648Z,1009.12
2016-07-03T09:47:25.641Z,1009.13
2016-07-03T09:48:25.633Z,1009.1
2016-07-03T09:49:25.626Z,1009.13
2016-07-03T09:50:25.617Z,1009.14
2016-07-03T09:51:25.611Z,1009.05
2016-07-03T09:52:25.601Z,1009.08
2016-07-03T09:53:25.590Z,1009.06
2016-07-03T09:54:25.588Z,1009.04
2016-07-03T09:55:25.580Z,1009.07
2016-07-03T09:56:25.570Z,1009.1
2016-07-03T09:57:25.564Z,1009.07
2016-07-03T09:58:25.561Z,1009.07
2016-07-03T09:59:25.547Z,1009.02
2016-07-03T10:00:25.541Z,1009.03
2016-07-03T10:01:25.533Z,1009.02
2016-07-03T10:02:25.524Z,1009.06
2016-07-03T10:03:25.518Z,1008.98
2016-07-03T10:04:25.508Z,1008.98
2016-07-03T10:05:25.500Z,1008.98
2016-07-03T10:06:25.493Z,1008.98
2016-07-03T10:07:25.483Z,1008.97
2016-07-03T10:08:25.471Z,1009.05
2016-07-03T10:09:25.468Z,1008.92
2016-07-03T10:10:25.460Z,1008.89
2016-07-03T10:11:25.453Z,1008.89
2016-07-03T10:12:25.444Z,1008.91
2016-07-03T10:13:25.437Z,1008.94
2016-07-03T10:14:25.427Z,1008.97
2016-07-03T10:15:25.419Z,1008.96
2016-07-03T10:16:25.411Z,1008.93
2016-07-03T10:17:25.402Z,1008.92
2016-07-03T10:18:25.393Z,1008.87
2016-07-03T10:19:25.382Z,1008.92
2016-07-03T10:20:25.375Z,1008.89
2016-07-03T10:21:25.364Z,1008.88
2016-07-03T10:22:25.354Z,1008.98
2016-07-03T10:23:25.346Z,1008.9
2016-07-03T10:24:25.334Z,1008.95
2016-07-03T10:25:25.326Z,1008.89
2016-07-03T10:26:25.315Z,1008.94
2016-07-03T10:27:25.301Z,1008.96
2016-07-03T10:28:25.293Z,1008.82
2016-07-03T10:29:25.278Z,1008.95
2016-07-03T10:30:25.270Z,1009.04
2016-07-03T10:31:25.259Z,1009.03
2016-07-03T10:32:25.246Z,1009.07
2016-07-03T10:33:25.234Z,1009.07
2016-07-03T10:34:25.231Z,1009.01
2016-07-03T10:35:25.207Z,1009.04
2016-07-03T10:36:25.192Z,1009
2016-07-03T10:37:25.178Z,1009.08
2016-07-03T10:38:25.166Z,1009.12
2016-07-03T10:39:25.148Z,1009.05
2016-07-03T10:40:25.137Z,1009.1
2016-07-03T10:41:25.125Z,1009.06
2016-07-03T10:42:25.106Z,1009.05
2016-07-03T10:43:25.094Z,1009.16
2016-07-03T10:44:25.078Z,1009.13
2016-07-03T10:45:25.065Z,1009.04
2016-07-03T10:46:25.050Z,1009.15
2016-07-03T10:47:25.034Z,1009.13
2016-07-03T10:48:25.021Z,1009.11
2016-07-03T10:49:25.006Z,1009.1
2016-07-03T10:50:24.991Z,1009.14
2016-07-03T10:51:24.975Z,1009.11
2016-07-03T10:52:24.959Z,1009.06
2016-07-03T10:53:24.949Z,1009.13
2016-07-03T10:54:24.932Z,1009.13
2016-07-03T10:55:24.917Z,1009.11
2016-07-03T10:56:24.903Z,1009.2
2016-07-03T10:57:24.889Z,1009.15
2016-07-03T10:58:24.880Z,1009.23
2016-07-03T10:59:24.858Z,1009.21
2016-07-03T11:00:24.850Z,1009.23
2016-07-03T11:01:24.831Z,1009.26
2016-07-03T11:02:24.814Z,1009.21
2016-07-03T11:03:24.799Z,1009.23
2016-07-03T11:04:24.787Z,1009.16
2016-07-03T11:05:24.773Z,1009.16
2016-07-03T11:06:24.758Z,1009.16
2016-07-03T11:07:24.743Z,1009.16
2016-07-03T11:08:24.731Z,1009.11
2016-07-03T11:09:24.717Z,1009.13
2016-07-03T11:10:24.711Z,1009.13
2016-07-03T11:11:24.694Z,1009.11
2016-07-03T11:12:24.680Z,1009.13
2016-07-03T11:13:24.669Z,1009.06
2016-07-03T11:14:24.658Z,1009.09
2016-07-03T11:15:24.647Z,1009.06
2016-07-03T11:16:24.640Z,1009.05
2016-07-03T11:17:24.630Z,1009.02
2016-07-03T11:18:24.621Z,1009.04
2016-07-03T11:19:24.615Z,1009.06
2016-07-03T11:20:24.605Z,1009.1
2016-07-03T11:21:24.599Z,1009.07
2016-07-03T11:22:24.591Z,1009.12
2016-07-03T11:23:24.586Z,1009.11
2016-07-03T11:24:24.577Z,1009.13
2016-07-03T11:25:24.573Z,1009.05
2016-07-03T11:26:24.569Z,1009.01
2016-07-03T11:27:24.562Z,1008.96
2016-07-03T11:28:24.555Z,1009
2016-07-03T11:29:24.555Z,1008.97
2016-07-03T11:30:24.550Z,1009.04
2016-07-03T11:31:24.543Z,1008.98
2016-07-03T11:32:24.543Z,1009.03
2016-07-03T11:33:24.540Z,1009.01
2016-07-03T11:34:24.536Z,1008.99
2016-07-03T11:35:24.530Z,1009.01
2016-07-03T11:36:24.529Z,1008.98
2016-07-03T11:37:24.527Z,1008.97
2016-07-03T11:38:24.523Z,1008.96
2016-07-03T11:39:24.521Z,1008.94
2016-07-03T11:40:24.516Z,1008.92
2016-07-03T11:41:24.511Z,1009.02
2016-07-03T11:42:24.508Z,1009.03
2016-07-03T11:43:24.504Z,1009.03
2016-07-03T11:44:24.499Z,1009.02
2016-07-03T11:45:24.495Z,1009.06
2016-07-03T11:46:24.487Z,1009.06
2016-07-03T11:47:24.482Z,1009.08
2016-07-03T11:48:24.475Z,1009.07
2016-07-03T11:49:24.468Z,1009.09
2016-07-03T11:50:24.497Z,1009.05
2016-07-03T11:51:24.454Z,1009.03
2016-07-03T11:52:24.446Z,1009.05
2016-07-03T11:53:24.437Z,1009.03
2016-07-03T11:54:24.429Z,1009.08
2016-07-03T11:55:24.420Z,1009.01
2016-07-03T11:56:24.412Z,1009.03
2016-07-03T11:57:24.401Z,1009.06
2016-07-03T11:58:24.391Z,1009.05
2016-07-03T11:59:24.381Z,1009.15
2016-07-03T12:00:24.370Z,1009.03
2016-07-03T12:01:24.359Z,1009.07
2016-07-03T12:02:24.352Z,1009.13
2016-07-03T12:03:24.337Z,1009.27
2016-07-03T12:04:24.325Z,1009.43
2016-07-03T12:05:24.312Z,1009.42
2016-07-03T12:06:24.301Z,1009.56
2016-07-03T12:07:24.287Z,1009.53
2016-07-03T12:08:24.278Z,1009.65